createdAt,value
2023-05-01T00:01:00.725Z,3.73
2023-05-01T00:04:04.066Z,3.77
2023-05-01T00:07:08.949Z,3.87
2023-05-01T00:10:12.262Z,3.80
2023-05-01T00:13:15.464Z,3.37
2023-05-01T00:16:18.664Z,3.57
2023-05-01T00:19:22.005Z,3.67
2023-05-01T00:22:26.881Z,3.10
2023-05-01T00:25:31.321Z,3.63
2023-05-01T00:28:34.658Z,3.93
2023-05-01T00:31:38.114Z,3.70
2023-05-01T00:34:41.668Z,3.83
2023-05-01T00:37:46.313Z,6.73
2023-05-01T00:40:49.652Z,3.63
2023-05-01T00:43:52.965Z,3.17
2023-05-01T00:46:56.573Z,3.93
2023-05-01T00:50:00.107Z,3.43
2023-05-01T00:53:05.105Z,4.03
2023-05-01T00:56:09.603Z,5.00
2023-05-01T00:59:12.928Z,3.70
2023-05-01T01:02:16.541Z,3.53
2023-05-01T01:05:20.776Z,4.23
2023-05-01T01:08:30.593Z,3.93
2023-05-01T01:11:38.238Z,3.90
2023-05-01T01:14:44.056Z,3.67
2023-05-01T01:17:53.173Z,4.23
2023-05-01T01:20:57.358Z,4.30
2023-05-01T01:24:14.247Z,4.07
2023-05-01T01:27:28.131Z,4.70
2023-05-01T01:30:49.353Z,4.30
2023-05-01T01:34:04.696Z,5.23
2023-05-01T01:37:12.827Z,4.43
2023-05-01T01:40:18.689Z,4.00
2023-05-01T01:43:23.368Z,4.47
2023-05-01T01:46:27.543Z,4.50
2023-05-01T01:49:33.110Z,4.63
2023-05-01T01:52:37.645Z,4.87
2023-05-01T01:55:41.980Z,5.30
2023-05-01T01:58:46.555Z,4.97
2023-05-01T02:01:51.192Z,4.37
2023-05-01T02:04:57.752Z,3.67
2023-05-01T02:08:01.681Z,5.03
2023-05-01T02:11:05.965Z,5.33
2023-05-01T02:14:09.928Z,4.27
2023-05-01T02:17:13.840Z,5.00
2023-05-01T02:20:19.026Z,4.63
2023-05-01T02:23:22.896Z,4.87
2023-05-01T02:26:28.434Z,5.63
2023-05-01T02:29:31.730Z,4.03
2023-05-01T02:32:35.106Z,5.47
2023-05-01T02:35:44.064Z,4.63
2023-05-01T02:38:51.026Z,4.17
2023-05-01T02:41:55.061Z,4.83
2023-05-01T02:44:59.453Z,5.33
2023-05-01T02:48:03.768Z,4.93
2023-05-01T02:51:09.230Z,4.47
2023-05-01T02:54:13.516Z,5.03
2023-05-01T02:57:18.418Z,5.23
2023-05-01T03:00:21.745Z,4.83
2023-05-01T03:03:25.080Z,5.07
2023-05-01T03:06:31.131Z,5.27
2023-05-01T03:09:34.524Z,5.00
2023-05-01T03:12:37.788Z,4.87
2023-05-01T03:15:41.352Z,5.30
2023-05-01T03:18:44.722Z,4.77
2023-05-01T03:21:49.348Z,5.37
2023-05-01T03:24:52.690Z,4.97
2023-05-01T03:27:55.953Z,4.93
2023-05-01T03:30:59.286Z,5.33
2023-05-01T03:34:02.617Z,5.83
2023-05-01T03:37:07.266Z,5.30
2023-05-01T03:40:12.489Z,6.43
2023-05-01T03:43:15.764Z,5.37
2023-05-01T03:46:19.230Z,5.23
2023-05-01T03:49:22.772Z,6.20
2023-05-01T03:52:27.723Z,5.73
2023-05-01T03:55:31.021Z,5.77
2023-05-01T03:58:34.322Z,5.37
2023-05-01T04:01:37.746Z,5.90
2023-05-01T04:04:41.152Z,5.63
2023-05-01T04:07:45.958Z,5.83
2023-05-01T04:10:49.284Z,5.43
2023-05-01T04:13:52.569Z,6.07
2023-05-01T04:16:56.352Z,6.53
2023-05-01T04:20:00.987Z,6.33
2023-05-01T04:23:05.630Z,6.03
2023-05-01T04:26:09.251Z,6.07
2023-05-01T04:29:12.543Z,6.00
2023-05-01T04:32:17.142Z,5.70
2023-05-01T04:35:20.516Z,6.57
2023-05-01T04:38:25.171Z,5.77
2023-05-01T04:41:29.421Z,5.93
2023-05-01T04:44:34.289Z,6.30
2023-05-01T04:47:37.597Z,6.33
2023-05-01T04:50:41.022Z,7.27
2023-05-01T04:53:45.878Z,6.37
2023-05-01T04:56:49.155Z,7.07
2023-05-01T04:59:52.422Z,6.53
2023-05-01T05:02:55.869Z,6.73
2023-05-01T05:05:59.293Z,6.50
2023-05-01T05:09:03.945Z,6.17
2023-05-01T05:12:07.473Z,6.27
2023-05-01T05:15:11.344Z,6.17
2023-05-01T05:18:14.666Z,6.60
2023-05-01T05:21:18.043Z,5.83
2023-05-01T05:24:22.686Z,6.03
2023-05-01T05:27:26.002Z,6.87
2023-05-01T05:30:29.468Z,6.73
2023-05-01T05:33:32.765Z,7.27
2023-05-01T05:36:36.445Z,6.83
2023-05-01T05:39:41.093Z,7.33
2023-05-01T05:42:44.372Z,6.17
2023-05-01T05:45:47.709Z,7.20
2023-05-01T05:48:51.151Z,6.33
2023-05-01T05:51:54.439Z,5.80
2023-05-01T05:54:59.311Z,6.50
2023-05-01T05:58:02.619Z,5.83
2023-05-01T06:01:06.980Z,6.87
2023-05-01T06:04:11.594Z,6.37
2023-05-01T06:07:15.174Z,6.77
2023-05-01T06:10:19.919Z,7.63
2023-05-01T06:13:23.198Z,6.87
2023-05-01T06:16:26.580Z,6.40
2023-05-01T06:19:29.875Z,6.77
2023-05-01T06:22:33.158Z,6.53
2023-05-01T06:25:38.456Z,6.57
2023-05-01T06:28:41.727Z,6.73
2023-05-01T06:31:45.741Z,6.37
2023-05-01T06:34:49.119Z,6.83
2023-05-01T06:37:52.579Z,6.67
2023-05-01T06:40:57.430Z,7.03
2023-05-01T06:44:00.840Z,7.40
2023-05-01T06:47:04.304Z,6.17
2023-05-01T06:50:08.370Z,5.83
2023-05-01T06:53:11.653Z,5.97
2023-05-01T06:56:16.307Z,7.20
2023-05-01T06:59:19.616Z,6.33
2023-05-01T07:02:23.040Z,6.30
2023-05-01T07:05:26.869Z,6.77
2023-05-01T07:08:30.878Z,6.43
2023-05-01T07:11:35.776Z,7.20
2023-05-01T07:14:39.071Z,6.60
2023-05-01T07:17:42.361Z,6.77
2023-05-01T07:20:45.782Z,6.80
2023-05-01T07:23:49.076Z,6.00
2023-05-01T07:26:53.727Z,6.33
2023-05-01T07:29:58.321Z,6.80
2023-05-01T07:33:02.029Z,5.97
2023-05-01T07:36:05.590Z,6.33
2023-05-01T07:39:09.056Z,6.50
2023-05-01T07:42:13.689Z,6.63
2023-05-01T07:45:16.990Z,7.83
2023-05-01T07:48:20.538Z,5.87
2023-05-01T07:51:24.062Z,7.53
2023-05-01T07:54:27.460Z,6.30
2023-05-01T07:57:33.465Z,5.50
2023-05-01T08:00:37.265Z,7.20
2023-05-01T08:03:40.629Z,6.23
2023-05-01T08:06:43.963Z,5.43
2023-05-01T08:09:47.947Z,5.80
2023-05-01T08:12:52.555Z,7.03
2023-05-01T08:15:56.220Z,6.37
2023-05-01T08:18:59.606Z,6.87
2023-05-01T08:22:02.884Z,5.97
2023-05-01T08:25:06.665Z,6.60
2023-05-01T08:28:11.353Z,6.53
2023-05-01T08:31:14.756Z,6.80
2023-05-01T08:34:18.291Z,6.70
2023-05-01T08:37:22.157Z,5.53
2023-05-01T08:40:25.938Z,7.00
2023-05-01T08:43:33.035Z,6.23
2023-05-01T08:46:40.357Z,6.13
2023-05-01T08:49:44.062Z,6.00
2023-05-01T08:52:48.616Z,6.47
2023-05-01T08:55:52.300Z,7.10
2023-05-01T08:58:57.501Z,6.20
2023-05-01T09:02:04.355Z,6.47
2023-05-01T09:05:08.304Z,7.13
2023-05-01T09:08:11.664Z,6.43
2023-05-01T09:11:15.102Z,7.13
2023-05-01T09:14:19.743Z,6.63
2023-05-01T09:17:23.607Z,7.27
2023-05-01T09:20:27.573Z,7.27
2023-05-01T09:23:31.314Z,6.30
2023-05-01T09:26:36.929Z,7.63
2023-05-01T09:29:42.256Z,6.27
2023-05-01T09:32:45.691Z,7.23
2023-05-01T09:35:52.845Z,7.70
2023-05-01T09:38:56.327Z,6.90
2023-05-01T09:41:59.696Z,6.97
2023-05-01T09:45:05.729Z,7.80
2023-05-01T09:48:13.201Z,6.97
2023-05-01T09:51:23.734Z,8.50
2023-05-01T09:54:27.223Z,7.07
2023-05-01T09:57:38.240Z,6.83
2023-05-01T10:00:50.582Z,7.83
2023-05-01T10:03:56.872Z,9.90
2023-05-01T10:07:02.365Z,15.27
2023-05-01T10:10:18.713Z,10.10
2023-05-01T10:13:22.028Z,9.97
2023-05-01T10:16:31.537Z,12.97
2023-05-01T10:19:34.880Z,9.13
2023-05-01T10:22:38.217Z,10.37
2023-05-01T10:25:43.546Z,11.30
2023-05-01T10:28:48.976Z,9.10
2023-05-01T10:31:53.917Z,10.13
2023-05-01T10:34:59.703Z,11.93
2023-05-01T10:38:04.057Z,19.27
2023-05-01T10:41:08.528Z,18.20
2023-05-01T10:44:21.850Z,12.57
2023-05-01T10:47:43.906Z,12.13
2023-05-01T10:51:02.262Z,11.50
2023-05-01T10:54:26.737Z,12.03
2023-05-01T10:57:44.186Z,11.33
2023-05-01T11:01:07.512Z,11.47
2023-05-01T11:04:31.832Z,11.70
2023-05-01T11:07:35.379Z,11.67
2023-05-01T11:10:40.116Z,11.73
2023-05-01T11:13:59.504Z,12.67
2023-05-01T11:17:02.823Z,11.10
2023-05-01T11:20:06.488Z,12.10
2023-05-01T11:23:10.131Z,12.07
2023-05-01T11:26:15.452Z,12.47
2023-05-01T11:29:19.037Z,11.70
2023-05-01T11:32:27.036Z,11.77
2023-05-01T11:35:30.790Z,12.40
2023-05-01T11:38:34.179Z,13.20
2023-05-01T11:41:38.791Z,12.57
2023-05-01T11:44:41.992Z,13.40
2023-05-01T11:47:45.364Z,12.73
2023-05-01T11:50:48.641Z,12.37
2023-05-01T11:54:01.218Z,13.00
2023-05-01T11:57:05.783Z,11.60
2023-05-01T12:00:09.968Z,13.10
2023-05-01T12:03:14.787Z,12.17
2023-05-01T12:06:18.513Z,13.17
2023-05-01T12:09:22.988Z,11.80
2023-05-01T12:12:27.625Z,12.90
2023-05-01T12:15:30.954Z,13.57
2023-05-01T12:18:34.585Z,13.63
2023-05-01T12:21:38.400Z,13.43
2023-05-01T12:24:50.669Z,12.80
2023-05-01T12:27:55.289Z,13.03
2023-05-01T12:31:05.483Z,12.30
2023-05-01T12:34:08.997Z,11.13
2023-05-01T12:37:12.304Z,12.93
2023-05-01T12:40:15.676Z,11.77
2023-05-01T12:43:20.391Z,12.77
2023-05-01T12:46:23.882Z,14.00
2023-05-01T12:49:27.448Z,11.73
2023-05-01T12:52:31.165Z,12.73
2023-05-01T12:55:36.030Z,13.03
2023-05-01T12:58:41.393Z,13.63
2023-05-01T13:01:44.701Z,12.30
2023-05-01T13:04:49.545Z,14.63
2023-05-01T13:07:53.544Z,15.03
2023-05-01T13:10:57.688Z,14.17
2023-05-01T13:14:08.660Z,14.80
2023-05-01T13:17:12.633Z,14.03
2023-05-01T13:20:17.278Z,13.57
2023-05-01T13:23:20.797Z,12.93
2023-05-01T13:26:28.887Z,14.80
2023-05-01T13:29:33.538Z,13.93
2023-05-01T13:32:41.057Z,12.33
2023-05-01T13:35:44.290Z,13.13
2023-05-01T13:38:48.296Z,13.33
2023-05-01T13:41:51.909Z,13.43
2023-05-01T13:44:57.320Z,11.60
2023-05-01T13:48:00.722Z,11.73
2023-05-01T13:51:03.900Z,11.73
2023-05-01T13:54:08.212Z,12.27
2023-05-01T13:57:11.774Z,11.20
2023-05-01T14:00:19.460Z,12.13
2023-05-01T14:03:22.829Z,12.37
2023-05-01T14:06:26.091Z,11.07
2023-05-01T14:09:29.630Z,12.17
2023-05-01T14:12:33.938Z,12.87
2023-05-01T14:15:43.024Z,11.50
2023-05-01T14:18:47.282Z,11.00
2023-05-01T14:21:50.481Z,11.40
2023-05-01T14:24:53.683Z,10.83
2023-05-01T14:27:57.608Z,9.97
2023-05-01T14:31:02.186Z,10.20
2023-05-01T14:34:07.319Z,10.13
2023-05-01T14:37:10.888Z,9.83
2023-05-01T14:40:14.270Z,10.43
2023-05-01T14:43:18.551Z,10.53
2023-05-01T14:46:28.494Z,9.33
2023-05-01T14:49:31.841Z,9.73
2023-05-01T14:52:36.538Z,8.73
2023-05-01T14:55:40.831Z,9.40
2023-05-01T14:58:44.043Z,11.50
2023-05-01T15:01:49.492Z,10.03
2023-05-01T15:04:52.743Z,8.47
2023-05-01T15:07:57.368Z,9.87
2023-05-01T15:11:00.651Z,9.40
2023-05-01T15:14:04.258Z,8.73
2023-05-01T15:17:08.812Z,8.53
2023-05-01T15:20:13.171Z,9.97
2023-05-01T15:23:16.613Z,9.30
2023-05-01T15:26:20.521Z,7.97
2023-05-01T15:29:23.789Z,7.37
2023-05-01T15:32:28.467Z,8.80
2023-05-01T15:35:31.942Z,9.23
2023-05-01T15:38:35.149Z,8.50
2023-05-01T15:41:38.355Z,7.67
2023-05-01T15:44:42.076Z,7.63
2023-05-01T15:47:46.641Z,7.97
2023-05-01T15:50:50.190Z,7.63
2023-05-01T15:53:53.502Z,8.60
2023-05-01T15:56:56.740Z,7.33
2023-05-01T16:00:00.475Z,8.87
2023-05-01T16:03:05.423Z,8.03
2023-05-01T16:06:10.071Z,9.10
2023-05-01T16:09:14.169Z,8.07
2023-05-01T16:12:17.793Z,8.43
2023-05-01T16:15:22.679Z,8.30
2023-05-01T16:18:27.236Z,6.93
2023-05-01T16:21:30.812Z,6.90
2023-05-01T16:24:34.290Z,6.83
2023-05-01T16:27:41.141Z,6.43
2023-05-01T16:30:44.994Z,6.17
2023-05-01T16:33:51.519Z,6.17
2023-05-01T16:36:56.402Z,6.87
2023-05-01T16:40:01.542Z,6.60
2023-05-01T16:43:05.151Z,7.37
2023-05-01T16:46:08.380Z,6.37
2023-05-01T16:49:14.268Z,7.43
2023-05-01T16:52:17.855Z,8.03
2023-05-01T16:55:21.103Z,6.87
2023-05-01T16:58:24.298Z,6.63
2023-05-01T17:01:27.561Z,7.30
2023-05-01T17:04:32.188Z,6.17
2023-05-01T17:07:35.548Z,6.93
2023-05-01T17:10:39.137Z,7.40
2023-05-01T17:13:42.448Z,6.87
2023-05-01T17:19:50.343Z,7.77
2023-05-01T17:22:53.548Z,8.00
2023-05-01T17:25:56.893Z,8.03
2023-05-01T17:29:01.118Z,7.60
2023-05-01T17:32:06.488Z,7.30
2023-05-01T17:35:11.545Z,7.23
2023-05-01T17:38:14.734Z,8.53
2023-05-01T17:41:18.317Z,8.03
2023-05-01T17:44:21.521Z,7.07
2023-05-01T17:47:26.226Z,7.57
2023-05-01T17:50:30.990Z,8.33
2023-05-01T17:53:34.197Z,7.60
2023-05-01T17:56:37.388Z,7.77
2023-05-01T17:59:40.581Z,8.83
2023-05-01T18:02:44.937Z,7.90
2023-05-01T18:05:49.824Z,7.83
2023-05-01T18:08:53.009Z,7.00
2023-05-01T18:11:56.491Z,8.73
2023-05-01T18:14:59.734Z,7.40
2023-05-01T18:18:02.994Z,6.87
2023-05-01T18:21:07.601Z,7.20
2023-05-01T18:24:10.846Z,7.43
2023-05-01T18:27:14.381Z,7.77
2023-05-01T18:30:17.884Z,6.87
2023-05-01T18:33:21.438Z,7.63
2023-05-01T18:36:27.321Z,6.80
2023-05-01T18:39:30.531Z,7.00
2023-05-01T18:42:33.717Z,11.97
2023-05-01T18:45:36.923Z,6.13
2023-05-01T18:48:40.214Z,6.93
2023-05-01T18:51:44.761Z,4.97
2023-05-01T18:54:47.978Z,4.83
2023-05-01T18:57:51.166Z,4.37
2023-05-01T19:00:54.379Z,4.87
2023-05-01T19:03:59.399Z,4.37
2023-05-01T19:07:05.083Z,4.50
2023-05-01T19:10:08.968Z,5.37
2023-05-01T19:13:12.284Z,3.57
2023-05-01T19:16:44.002Z,3.93
2023-05-01T19:27:56.027Z,3.57
2023-05-01T19:30:59.251Z,3.87
2023-05-01T19:34:02.541Z,3.63
2023-05-01T19:37:05.913Z,3.67
2023-05-01T19:40:09.651Z,4.00
2023-05-01T19:43:14.247Z,3.97
2023-05-01T19:46:17.597Z,3.27
2023-05-01T19:49:20.882Z,3.63
2023-05-01T19:55:41.413Z,4.87
2023-05-01T19:58:45.930Z,4.27
2023-05-01T20:01:49.262Z,7.17
2023-05-01T20:04:52.706Z,4.60
2023-05-01T20:07:57.802Z,6.60
2023-05-01T20:11:01.746Z,8.50
2023-05-01T20:14:06.378Z,5.30
2023-05-01T20:17:09.750Z,6.23
2023-05-01T20:20:13.088Z,3.63
2023-05-01T20:23:17.034Z,4.17
2023-05-01T20:26:20.238Z,2.53
2023-05-01T20:29:24.812Z,3.10
2023-05-01T20:32:28.022Z,5.37
2023-05-01T20:35:34.034Z,3.97
2023-05-01T20:38:41.127Z,4.17
2023-05-01T20:41:44.291Z,2.63
2023-05-01T20:44:48.782Z,2.30
2023-05-01T20:47:53.263Z,2.87
2023-05-01T20:50:56.529Z,2.47
2023-05-01T20:53:59.767Z,2.20
2023-05-01T20:57:03.902Z,2.30
2023-05-01T21:00:09.319Z,3.00
2023-05-01T21:03:14.533Z,2.33
2023-05-01T21:06:18.067Z,3.17
2023-05-01T21:09:21.376Z,2.33
2023-05-01T21:12:24.653Z,2.20
2023-05-01T21:15:31.118Z,8.73
2023-05-01T21:18:35.180Z,1.93
2023-05-01T21:21:38.405Z,2.00
2023-05-01T21:24:44.230Z,1.93
2023-05-01T21:27:47.593Z,2.37
2023-05-01T21:30:52.330Z,2.60
2023-05-01T21:33:58.097Z,2.33
2023-05-01T21:37:01.313Z,2.40
2023-05-01T21:40:06.965Z,2.33
2023-05-01T21:43:10.726Z,2.43
2023-05-01T21:46:17.132Z,2.07
2023-05-01T21:49:23.035Z,1.87
2023-05-01T21:52:26.363Z,2.57
2023-05-01T21:55:29.553Z,2.20
2023-05-01T21:58:33.213Z,2.37
2023-05-01T22:01:40.178Z,2.10
2023-05-01T22:04:44.141Z,2.90
2023-05-01T22:07:48.331Z,2.87
2023-05-01T22:10:51.502Z,3.10
2023-05-01T22:13:54.657Z,3.13
2023-05-01T22:16:59.403Z,2.87
2023-05-01T22:20:02.948Z,4.17
2023-05-01T22:23:06.302Z,5.63
2023-05-01T22:26:09.477Z,5.20
2023-05-01T22:29:12.937Z,3.70
2023-05-01T22:32:17.515Z,4.20
2023-05-01T22:35:20.728Z,2.87
2023-05-01T22:38:23.901Z,3.30
2023-05-01T22:41:27.071Z,3.47
2023-05-01T22:44:30.230Z,3.00
2023-05-01T22:47:35.053Z,2.73
2023-05-01T22:50:38.232Z,2.40
2023-05-01T22:53:41.408Z,2.03
2023-05-01T22:56:46.038Z,2.73
2023-05-01T22:59:49.521Z,2.53
2023-05-01T23:02:54.161Z,2.40
2023-05-01T23:05:57.618Z,2.47
2023-05-01T23:09:00.843Z,2.53
2023-05-01T23:12:04.194Z,2.30
2023-05-01T23:15:09.745Z,3.30
2023-05-01T23:18:15.468Z,2.33
2023-05-01T23:21:19.179Z,2.40
2023-05-01T23:24:22.324Z,2.20
2023-05-01T23:27:25.510Z,2.70
2023-05-01T23:30:28.662Z,2.87
2023-05-01T23:33:37.754Z,2.80
2023-05-01T23:36:41.067Z,2.47
2023-05-01T23:39:44.245Z,2.40
2023-05-01T23:42:47.843Z,3.60
2023-05-01T23:45:51.229Z,3.17
2023-05-01T23:48:56.441Z,2.63
2023-05-01T23:51:59.892Z,3.60
2023-05-01T23:55:03.053Z,3.30
2023-05-01T23:58:06.699Z,3.07
